Terminal Aerodrome Forecast
Issued by NWS

Home | Current Version | Previous Version | Text Only | Print | Product List | Glossary On
Versions: 1 2 3 4 5 6 7 8 9 10 11 12 13 14 15 16 17 18 19 20 21 22
457
FTUS45 KTFX 282333
TAFHVR
TAF
KHVR 282333Z 2900/2924 12013KT P6SM VCSH BKN050 OVC100
     FM290200 10008KT P6SM SCT070 BKN100
     FM290600 09011KT P6SM SCT025 OVC040
     FM291800 10012KT P6SM BKN060=

USA.gov is the U.S. government's official web portal to all federal, state and local government web resources and services.